Airfield :
LOGIN :

Register | Disclaimer

   EN    FR    IT 

 










Legend :    VFR   Marginal VFR   IFR   Intensive IFR   Very Intensive IFR
Visi :
Ceiling :
>= 8 km
>= 3000ft
5 to 8 km
1000 to 3000 ft
1500m to 5 km
500 to 1000 ft
800 to 1500m
200 to 500 ft
< 800m
< 200 ft
Symbols :   Thunderstorms  Fog  Heavy snow  Heavy precipitations  Wind > 20 kt
SIGMETs :     Misc.  Thunderstorms  Icing  Turbulence  Mountain Waves  Volcanic Ashes






- Airport Elevation : 102 ft
- IATA code : CNG


LFBG - Cognac

CURRENT METAR :
  • 290630Z AUTO 07003KT 0600 0400 R23/0300D FG OVC008 03/03 Q1019

EXPIRED METARs :
  • 290600Z AUTO 00000KT 1000 0600 R23/0800N BCFG SCT009 BKN015 03/03 Q1019
  • 290530Z AUTO 00000KT 1000 0900 R23/1100U BCFG SCT004 03/03 Q1019
  • 290500Z AUTO 00000KT 4900 1000 R23/1300D BR NSC 04/03 Q1019
  • 290430Z AUTO 06002KT 1400 1100 R23/1400N BR SCT037 04/04 Q1019
  • 290400Z AUTO 08001KT 5000 1300 R23/1600D BR FEW037 SCT078 04/04 Q1018

TAF AMD TAF LFBG
Valid from the 29 at 06:00 until the 30 at 03:00 UTC


290620Z 2906/3003 VRB02KT 2000 BR NSC
TEMPO 2906/2910 0500 FG BKN003
BECMG 2910/2912 CAVOK
BECMG 2919/2921 2000 BR
TEMPO 2921/3003 0500 FG VV///



MET'MAP, your aeronautical weather chart ! - Copyright ORBIFLY December 2007 - Disclaimer

ORBIFLY MET'MAP TEAM :

Programming & Development : Alexandra Zaïnal
Original concept : Baudouin d'Aumeries
Technical & hardware support : Manuel Goepfert
Assistance : Marc-Olivier Méhu




SOURCES & CREDITS :

   NOAA